Terminal Aerodrome Forecast
Issued by NWS La Crosse, WI

Home | Current Version | Previous Version | Text Only | Print | Product List | Glossary On
Versions: 1 2 3 4 5 6 7 8 9 10 11 12 13 14 15 16 17 18 19 20 21 22 23 24
000
FTUS43 KARX 281720
TAFLSE
TAF
KLSE 281720Z 2818/2918 11005KT P6SM SCT012 SCT025
      TEMPO 2818/2819 BKN012
     FM282000 13005KT P6SM SCT030
     FM290000 14004KT P6SM SCT200
     FM290900 14004KT 3SM BR SCT003
     FM291430 14004KT P6SM SCT015
     FM291600 16005KT P6SM SCT040=

USA.gov is the U.S. government's official web portal to all federal, state and local government web resources and services.